Time;durP1;ratioP1;P1;durP2;ratioP2;P2;SDS_P1;SDS_P2;PMS_P1;PMS_P2;Temp;Humidity;BMP_temperature;BMP_pressure;BME280_temperature;BME280_humidity;BME280_pressure;Samples;Min_cycle;Max_cycle;Signal;HPM_P1;HPM_P2
2023/07/11 00:00:47;;;;;;;7.00;6.20;;;27.30;73.30;;;;;;5016882;28;20250;-69
2023/07/11 00:03:13;;;;;;;8.43;6.10;;;27.30;73.40;;;;;;5018560;28;20863;-69
2023/07/11 00:05:39;;;;;;;7.90;6.00;;;27.20;74.20;;;;;;5017399;28;20504;-69
2023/07/11 00:08:06;;;;;;;6.73;6.03;;;27.10;74.50;;;;;;5018745;28;20987;-69
2023/07/11 00:10:32;;;;;;;6.77;5.80;;;27.10;75.20;;;;;;5015553;28;20570;-69
2023/07/11 00:12:57;;;;;;;7.00;5.43;;;27.10;75.40;;;;;;5017562;28;20491;-70
2023/07/11 00:15:23;;;;;;;8.00;5.60;;;27.10;75.50;;;;;;5020784;28;20208;-69
2023/07/11 00:17:50;;;;;;;7.33;5.70;;;27.10;75.50;;;;;;5014450;28;20246;-70
2023/07/11 00:20:16;;;;;;;5.90;5.40;;;27.10;75.90;;;;;;5014918;28;20422;-69
2023/07/11 00:22:43;;;;;;;6.03;5.43;;;27.00;76.10;;;;;;5014653;28;20440;-70
2023/07/11 00:25:09;;;;;;;8.93;6.00;;;27.00;76.00;;;;;;5011218;28;20423;-69
2023/07/11 00:27:35;;;;;;;9.87;5.97;;;27.00;76.00;;;;;;5013286;28;20938;-69
2023/07/11 00:30:01;;;;;;;7.90;5.27;;;27.00;76.20;;;;;;5015225;28;20879;-69
2023/07/11 00:32:27;;;;;;;6.33;5.33;;;27.00;76.30;;;;;;5013877;28;21051;-69
2023/07/11 00:34:53;;;;;;;6.93;5.87;;;27.00;76.30;;;;;;5017437;28;20526;-69
2023/07/11 00:37:18;;;;;;;5.93;5.10;;;26.90;76.50;;;;;;5019611;28;20176;-69
2023/07/11 00:39:44;;;;;;;7.10;5.97;;;26.90;77.80;;;;;;5011579;28;20724;-69
2023/07/11 00:42:10;;;;;;;6.60;5.97;;;26.90;77.30;;;;;;5016555;28;20635;-69
2023/07/11 00:45:03;;;;;;;7.13;6.43;;;26.90;77.60;;;;;;5018355;28;20184;-69
2023/07/11 00:47:30;;;;;;;7.10;6.40;;;26.90;78.20;;;;;;5018113;28;20435;-69
2023/07/11 00:50:09;;;;;;;8.30;6.40;;;26.90;78.40;;;;;;5018254;28;21427;-69
2023/07/11 00:52:36;;;;;;;7.17;5.73;;;26.90;79.10;;;;;;5015916;28;20941;-69
2023/07/11 00:55:08;;;;;;;9.33;6.17;;;26.80;79.20;;;;;;5021720;28;20411;-69
2023/07/11 00:57:38;;;;;;;7.93;5.70;;;26.80;79.70;;;;;;5019240;28;20992;-69
2023/07/11 01:00:05;;;;;;;6.90;6.20;;;26.80;80.20;;;;;;5012744;28;20462;-70
2023/07/11 01:02:32;;;;;;;6.70;5.90;;;26.80;80.80;;;;;;5016396;28;20468;-69
2023/07/11 01:04:59;;;;;;;6.07;5.53;;;26.70;80.50;;;;;;5023555;28;20450;-69
2023/07/11 01:07:29;;;;;;;6.40;5.80;;;26.70;80.60;;;;;;5019429;28;20432;-69
2023/07/11 01:09:55;;;;;;;8.13;6.47;;;26.60;81.00;;;;;;5017286;28;20607;-69
2023/07/11 01:12:21;;;;;;;10.47;5.77;;;26.60;80.80;;;;;;5013152;28;21693;-69
2023/07/11 01:14:48;;;;;;;6.40;5.67;;;26.60;80.60;;;;;;5020595;28;20812;-69
2023/07/11 01:17:28;;;;;;;7.73;6.30;;;26.60;80.50;;;;;;5020386;28;20264;-69
2023/07/11 01:19:55;;;;;;;7.40;5.67;;;26.60;80.60;;;;;;5018509;28;20508;-69
2023/07/11 01:22:21;;;;;;;6.70;5.70;;;26.50;80.60;;;;;;5019008;28;20435;-69
2023/07/11 01:24:48;;;;;;;7.53;5.50;;;26.50;80.70;;;;;;5015447;28;20474;-69
2023/07/11 01:27:14;;;;;;;6.73;6.03;;;26.50;80.90;;;;;;5016224;28;20648;-69
2023/07/11 01:29:41;;;;;;;8.17;6.20;;;26.50;82.00;;;;;;5020595;28;20458;-69
2023/07/11 01:32:07;;;;;;;6.97;6.27;;;26.40;81.90;;;;;;5025940;28;20659;-69
2023/07/11 01:34:33;;;;;;;8.40;5.83;;;26.40;82.10;;;;;;5019100;28;20435;-69
2023/07/11 01:36:58;;;;;;;7.10;6.40;;;26.40;83.00;;;;;;5017399;28;20431;-69
2023/07/11 01:39:25;;;;;;;7.67;5.77;;;26.40;83.80;;;;;;5016138;28;20219;-69
2023/07/11 01:41:50;;;;;;;6.63;5.93;;;26.30;83.90;;;;;;5018047;28;20184;-69
2023/07/11 01:44:16;;;;;;;8.10;6.47;;;26.30;83.90;;;;;;5017413;28;20529;-69
2023/07/11 01:46:41;;;;;;;9.43;5.90;;;26.30;84.20;;;;;;5016430;28;20196;-69
2023/07/11 01:49:07;;;;;;;6.97;6.33;;;26.30;84.70;;;;;;5016417;28;20212;-69
2023/07/11 01:51:32;;;;;;;7.70;6.90;;;26.20;84.70;;;;;;5017126;28;20647;-67
2023/07/11 01:53:58;;;;;;;6.30;5.70;;;26.20;84.90;;;;;;5017963;28;20650;-67
2023/07/11 01:56:24;;;;;;;10.47;6.37;;;26.20;85.40;;;;;;5015105;28;22174;-69
2023/07/11 01:58:49;;;;;;;7.00;6.07;;;26.20;85.50;;;;;;5017488;28;20642;-69
2023/07/11 02:01:15;;;;;;;7.40;6.20;;;26.20;85.60;;;;;;5020988;28;20440;-69
2023/07/11 02:03:40;;;;;;;6.20;5.60;;;26.20;85.60;;;;;;5019645;28;20642;-69
2023/07/11 02:06:06;;;;;;;7.57;6.10;;;26.20;85.80;;;;;;5024261;28;20271;-69
2023/07/11 02:08:34;;;;;;;6.33;5.73;;;26.20;86.30;;;;;;5022764;28;20219;-69
2023/07/11 02:10:59;;;;;;;6.10;5.40;;;26.20;86.50;;;;;;5021042;28;20294;-69
2023/07/11 02:13:25;;;;;;;7.00;6.30;;;26.20;86.40;;;;;;5024802;28;20533;-69
2023/07/11 02:15:50;;;;;;;6.50;5.90;;;26.20;86.10;;;;;;5019222;28;20626;-70
2023/07/11 02:18:16;;;;;;;7.00;6.20;;;26.10;86.00;;;;;;5021547;28;20208;-69
2023/07/11 02:20:43;;;;;;;8.60;5.50;;;26.10;85.90;;;;;;5018338;28;20192;-69
2023/07/11 02:23:13;;;;;;;6.80;6.10;;;26.10;85.60;;;;;;5022453;28;20275;-69
2023/07/11 02:25:38;;;;;;;6.70;5.80;;;26.10;85.20;;;;;;5020325;28;21299;-69
2023/07/11 02:28:04;;;;;;;6.63;5.93;;;26.10;85.10;;;;;;5021518;28;20447;-69
2023/07/11 02:30:30;;;;;;;7.73;6.00;;;26.10;86.00;;;;;;5020257;28;20215;-69
2023/07/11 02:32:56;;;;;;;5.57;5.07;;;26.00;84.90;;;;;;5021909;28;20187;-69
2023/07/11 02:35:22;;;;;;;6.10;5.60;;;26.00;85.10;;;;;;5022340;28;20439;-69
2023/07/11 02:37:47;;;;;;;9.50;6.20;;;26.00;85.00;;;;;;5021097;28;20185;-69
2023/07/11 02:40:13;;;;;;;6.40;5.37;;;25.90;84.80;;;;;;5021906;28;20191;-69
2023/07/11 02:42:38;;;;;;;5.67;4.90;;;25.90;84.60;;;;;;5023518;28;20189;-69
2023/07/11 02:45:04;;;;;;;9.40;6.20;;;25.80;83.90;;;;;;5021458;28;20219;-69
2023/07/11 02:47:30;;;;;;;6.00;5.40;;;25.80;83.90;;;;;;5019931;28;20241;-69
2023/07/11 02:49:55;;;;;;;6.13;5.50;;;25.80;83.10;;;;;;5017312;28;20835;-69
2023/07/11 02:52:21;;;;;;;6.53;4.90;;;25.70;83.00;;;;;;5021085;28;20643;-69
2023/07/11 02:54:46;;;;;;;6.00;5.40;;;25.70;82.80;;;;;;5018584;28;20546;-69
2023/07/11 02:57:12;;;;;;;6.37;5.53;;;25.70;82.80;;;;;;5021503;28;20627;-69
2023/07/11 02:59:37;;;;;;;5.63;5.03;;;25.70;82.80;;;;;;5020027;28;20670;-69
2023/07/11 03:02:03;;;;;;;5.60;5.10;;;25.70;82.80;;;;;;5018716;28;20192;-69
2023/07/11 03:04:30;;;;;;;7.10;5.13;;;25.70;82.80;;;;;;5019764;28;20192;-69
2023/07/11 03:06:56;;;;;;;7.53;5.47;;;25.60;82.60;;;;;;5019929;28;20451;-69
2023/07/11 03:09:23;;;;;;;9.73;5.70;;;25.60;82.80;;;;;;5016120;28;20498;-69
2023/07/11 03:11:50;;;;;;;7.57;5.60;;;25.60;83.00;;;;;;5024386;28;20525;-69
2023/07/11 03:14:15;;;;;;;6.70;5.47;;;25.60;83.10;;;;;;5019405;28;20427;-70
2023/07/11 03:16:42;;;;;;;5.90;5.40;;;25.50;83.00;;;;;;5020409;28;20426;-69
2023/07/11 03:19:08;;;;;;;6.43;5.53;;;25.50;83.40;;;;;;5016694;28;20208;-69
2023/07/11 03:21:33;;;;;;;6.63;6.03;;;25.50;83.40;;;;;;5019328;28;20972;-69
2023/07/11 03:23:59;;;;;;;6.83;5.80;;;25.50;83.50;;;;;;5016735;28;20449;-69
2023/07/11 03:26:25;;;;;;;5.20;4.70;;;25.50;83.40;;;;;;5017773;28;20176;-69
2023/07/11 03:28:50;;;;;;;6.73;5.60;;;25.40;83.10;;;;;;5021426;28;20251;-69
2023/07/11 03:31:16;;;;;;;6.93;6.03;;;25.40;83.10;;;;;;5011582;28;20228;-69
2023/07/11 03:33:42;;;;;;;6.80;5.23;;;25.40;82.90;;;;;;5020752;28;20195;-69
2023/07/11 03:36:08;;;;;;;6.57;5.93;;;25.40;82.90;;;;;;5022876;28;20477;-69
2023/07/11 03:38:34;;;;;;;6.10;5.50;;;25.40;83.00;;;;;;5020434;28;21105;-69
2023/07/11 03:40:59;;;;;;;6.77;6.17;;;25.40;82.70;;;;;;5019598;28;20484;-68
2023/07/11 03:43:25;;;;;;;9.97;5.40;;;25.30;82.70;;;;;;5023587;28;20638;-68
2023/07/11 03:45:50;;;;;;;5.87;5.23;;;25.30;82.40;;;;;;5018137;28;20186;-68
2023/07/11 03:48:17;;;;;;;6.30;5.70;;;25.30;83.50;;;;;;5020383;28;20232;-68
2023/07/11 03:50:43;;;;;;;7.67;5.90;;;25.30;82.70;;;;;;5015734;28;20840;-68
2023/07/11 03:53:08;;;;;;;6.17;5.57;;;25.20;82.70;;;;;;5019884;28;20455;-68
2023/07/11 03:55:34;;;;;;;6.80;5.93;;;25.20;82.60;;;;;;5021286;28;20466;-69
2023/07/11 03:58:00;;;;;;;6.87;5.27;;;25.20;82.70;;;;;;5018086;28;20182;-68
2023/07/11 04:00:26;;;;;;;6.40;5.30;;;25.20;83.10;;;;;;5020033;28;20185;-68
2023/07/11 04:02:51;;;;;;;6.90;5.70;;;25.20;82.80;;;;;;5020891;28;20858;-68
2023/07/11 04:05:17;;;;;;;6.13;5.53;;;25.20;84.00;;;;;;5022588;28;20216;-68
2023/07/11 04:07:43;;;;;;;6.90;5.97;;;25.20;83.80;;;;;;5019410;28;20561;-68
2023/07/11 04:10:12;;;;;;;8.00;6.87;;;25.20;85.60;;;;;;5019671;28;20680;-69
2023/07/11 04:12:38;;;;;;;6.27;5.63;;;25.10;87.80;;;;;;5019380;28;20220;-69
2023/07/11 04:15:04;;;;;;;7.57;6.27;;;25.10;88.30;;;;;;5018896;28;20434;-69
2023/07/11 04:17:29;;;;;;;6.23;5.60;;;25.10;89.30;;;;;;5018661;28;20518;-69
2023/07/11 04:19:55;;;;;;;6.63;6.03;;;25.00;90.10;;;;;;5021492;28;20527;-69
2023/07/11 04:22:20;;;;;;;7.20;6.13;;;25.10;90.20;;;;;;5018595;28;20188;-69
2023/07/11 04:24:46;;;;;;;11.20;7.77;;;25.10;90.50;;;;;;5020422;28;20173;-69
2023/07/11 04:27:11;;;;;;;8.20;7.00;;;25.10;90.70;;;;;;5016927;28;20184;-69
2023/07/11 04:29:37;;;;;;;7.20;6.50;;;25.10;91.00;;;;;;5017434;28;20212;-69
2023/07/11 04:32:04;;;;;;;8.87;7.40;;;25.10;91.40;;;;;;5017577;28;20543;-69
2023/07/11 04:34:29;;;;;;;7.97;6.13;;;25.00;92.00;;;;;;5032278;28;20180;-69
2023/07/11 04:36:55;;;;;;;9.00;6.47;;;25.00;91.90;;;;;;5018905;28;20454;-69
2023/07/11 04:39:21;;;;;;;6.67;6.00;;;25.00;91.80;;;;;;5019398;28;20287;-69
2023/07/11 04:41:46;;;;;;;8.53;6.70;;;25.00;91.80;;;;;;5021132;28;20184;-69
2023/07/11 04:44:12;;;;;;;11.47;7.60;;;25.10;91.90;;;;;;5020022;28;20197;-69
2023/07/11 04:46:37;;;;;;;7.80;6.40;;;25.10;92.50;;;;;;5017235;28;20194;-69
2023/07/11 04:49:03;;;;;;;8.43;6.90;;;25.10;92.90;;;;;;5018055;28;20617;-69
2023/07/11 04:51:29;;;;;;;9.13;7.40;;;25.00;93.20;;;;;;5021887;28;20180;-69
2023/07/11 04:53:55;;;;;;;12.10;7.63;;;24.90;93.50;;;;;;5039498;28;20441;-67
2023/07/11 04:56:21;;;;;;;8.17;7.40;;;24.80;94.00;;;;;;5024884;28;20423;-68
2023/07/11 04:58:46;;;;;;;7.70;7.00;;;24.70;94.40;;;;;;5024887;28;20204;-68
2023/07/11 05:01:14;;;;;;;10.03;6.97;;;24.70;95.00;;;;;;5021711;28;20254;-69
2023/07/11 05:03:40;;;;;;;8.53;7.60;;;24.80;95.30;;;;;;5022352;28;20200;-69
2023/07/11 05:06:07;;;;;;;11.10;8.23;;;24.60;96.20;;;;;;5024775;28;20846;-68
2023/07/11 05:08:33;;;;;;;9.60;6.77;;;24.60;96.50;;;;;;5026661;28;20458;-68
2023/07/11 05:11:03;;;;;;;7.90;7.10;;;24.60;97.20;;;;;;5021064;28;20467;-69
2023/07/11 05:13:31;;;;;;;8.50;7.60;;;24.60;97.30;;;;;;5026935;28;20431;-68
2023/07/11 05:16:06;;;;;;;8.70;6.97;;;24.60;97.70;;;;;;5018175;28;20447;-68
2023/07/11 05:18:33;;;;;;;8.40;7.50;;;24.60;97.80;;;;;;5020263;28;20480;-68
2023/07/11 05:20:59;;;;;;;10.77;7.40;;;24.70;98.10;;;;;;5022681;28;20516;-68
2023/07/11 05:23:27;;;;;;;8.87;7.30;;;24.60;98.30;;;;;;5023085;28;20438;-68
2023/07/11 05:25:54;;;;;;;7.00;6.30;;;24.60;98.20;;;;;;5020393;28;20180;-69
2023/07/11 05:28:20;;;;;;;7.53;6.70;;;24.60;98.30;;;;;;5024835;28;20545;-68
2023/07/11 05:30:46;;;;;;;11.80;7.27;;;24.60;98.20;;;;;;5020669;28;20899;-68
2023/07/11 05:33:11;;;;;;;7.30;6.60;;;24.70;98.10;;;;;;5019065;28;20522;-69
2023/07/11 05:35:41;;;;;;;10.27;7.17;;;24.70;97.80;;;;;;5021989;28;20291;-68
2023/07/11 05:38:06;;;;;;;7.20;6.30;;;24.70;97.80;;;;;;5024728;28;20667;-68
2023/07/11 05:40:32;;;;;;;7.20;6.50;;;24.70;97.60;;;;;;5022306;28;20430;-69
2023/07/11 05:42:58;;;;;;;9.10;7.37;;;24.80;97.60;;;;;;5020237;28;20738;-69
2023/07/11 05:45:23;;;;;;;7.00;6.30;;;24.80;97.40;;;;;;5021260;28;20443;-69
2023/07/11 05:47:49;;;;;;;8.03;6.80;;;24.80;97.30;;;;;;5018961;28;20674;-69
2023/07/11 05:50:15;;;;;;;7.50;6.77;;;24.90;97.30;;;;;;5022709;28;20207;-69
2023/07/11 05:52:40;;;;;;;8.27;7.47;;;24.90;97.20;;;;;;5021239;28;20685;-69
2023/07/11 05:55:06;;;;;;;9.03;7.33;;;24.90;97.30;;;;;;5028141;28;20252;-68
2023/07/11 05:57:32;;;;;;;8.37;6.77;;;25.00;97.10;;;;;;5024748;28;20238;-69
2023/07/11 05:59:57;;;;;;;8.50;6.80;;;25.00;97.00;;;;;;5019102;28;20500;-69
2023/07/11 06:02:23;;;;;;;8.53;6.67;;;25.10;96.90;;;;;;5014950;28;20254;-69
2023/07/11 06:04:48;;;;;;;7.77;6.97;;;25.10;96.90;;;;;;5022038;28;20569;-69
2023/07/11 06:07:14;;;;;;;7.70;7.00;;;25.20;97.10;;;;;;5023246;28;20334;-69
2023/07/11 06:09:39;;;;;;;15.83;7.00;;;25.20;97.10;;;;;;5021438;28;20424;-69
2023/07/11 06:12:05;;;;;;;8.83;7.17;;;25.30;96.50;;;;;;5022574;28;20204;-69
2023/07/11 06:14:31;;;;;;;10.03;6.30;;;25.30;96.20;;;;;;5019077;28;20523;-69
2023/07/11 06:16:56;;;;;;;10.97;6.30;;;25.30;95.80;;;;;;5021076;28;20435;-69
2023/07/11 06:19:22;;;;;;;7.00;6.30;;;25.40;95.40;;;;;;5023242;28;20211;-69
2023/07/11 06:21:48;;;;;;;7.80;5.83;;;25.40;95.00;;;;;;5022958;28;20181;-69
2023/07/11 06:24:13;;;;;;;7.57;6.87;;;25.40;94.60;;;;;;5021054;28;20181;-69
2023/07/11 06:26:39;;;;;;;15.00;13.50;;;25.50;93.80;;;;;;5021702;28;20181;-69
2023/07/11 06:29:04;;;;;;;7.30;6.50;;;25.50;93.80;;;;;;5018857;28;20283;-69
2023/07/11 06:31:30;;;;;;;7.33;6.63;;;25.50;93.90;;;;;;5019019;28;20184;-69
2023/07/11 06:33:56;;;;;;;6.77;6.17;;;25.50;92.80;;;;;;5020421;28;20174;-69
2023/07/11 06:36:22;;;;;;;9.37;8.37;;;25.50;92.60;;;;;;5024596;28;20165;-69
2023/07/11 06:38:47;;;;;;;8.07;6.57;;;25.50;92.60;;;;;;5022906;28;20458;-69
2023/07/11 06:41:13;;;;;;;6.90;6.30;;;25.50;92.20;;;;;;5018276;28;20184;-69
2023/07/11 06:43:38;;;;;;;6.50;5.80;;;25.60;92.30;;;;;;5022321;28;20183;-69
2023/07/11 06:46:04;;;;;;;6.90;6.30;;;25.60;92.40;;;;;;5021144;28;20188;-69
2023/07/11 06:48:31;;;;;;;7.70;6.90;;;25.60;92.20;;;;;;5022650;28;20314;-69
2023/07/11 06:51:00;;;;;;;6.93;6.23;;;25.50;92.50;;;;;;5017755;28;20236;-69
2023/07/11 06:53:29;;;;;;;7.50;6.20;;;25.70;92.50;;;;;;5024322;28;20792;-69
2023/07/11 06:55:55;;;;;;;11.40;6.57;;;25.70;92.30;;;;;;5022118;28;20426;-69
2023/07/11 06:58:22;;;;;;;6.97;6.33;;;25.90;92.00;;;;;;5021936;28;20450;-69
2023/07/11 07:01:01;;;;;;;7.67;7.00;;;25.80;92.40;;;;;;5017580;28;20180;-69
2023/07/11 07:03:27;;;;;;;6.83;6.13;;;25.90;92.20;;;;;;5021889;28;20466;-70
2023/07/11 07:06:01;;;;;;;9.43;6.00;;;26.00;92.10;;;;;;5020640;28;20488;-69
2023/07/11 07:08:26;;;;;;;9.63;6.60;;;26.00;92.00;;;;;;5021291;28;20459;-69
2023/07/11 07:10:52;;;;;;;7.83;6.17;;;26.00;92.20;;;;;;5021962;28;20486;-69
2023/07/11 07:13:20;;;;;;;8.10;6.30;;;26.10;92.20;;;;;;5020495;28;20526;-69
2023/07/11 07:15:48;;;;;;;7.07;6.10;;;26.10;92.20;;;;;;5014875;28;20461;-69
2023/07/11 07:18:14;;;;;;;10.20;6.37;;;26.20;92.50;;;;;;5019188;28;20446;-69
2023/07/11 07:20:39;;;;;;;8.10;6.00;;;26.20;92.50;;;;;;5020620;28;20439;-69
2023/07/11 07:23:05;;;;;;;6.60;6.00;;;26.20;92.50;;;;;;5021718;28;20484;-69
2023/07/11 07:25:31;;;;;;;7.07;6.03;;;26.30;92.40;;;;;;5018038;28;20642;-69
2023/07/11 07:27:57;;;;;;;7.53;6.10;;;26.40;91.90;;;;;;5013361;28;20192;-69
2023/07/11 07:30:23;;;;;;;10.90;7.23;;;26.40;91.80;;;;;;5010887;28;20475;-69
2023/07/11 07:32:49;;;;;;;6.57;5.97;;;26.60;91.70;;;;;;5020283;28;20510;-69
2023/07/11 07:35:15;;;;;;;9.57;6.30;;;26.60;91.70;;;;;;5017187;28;20721;-69
2023/07/11 07:37:40;;;;;;;9.97;6.73;;;26.60;91.70;;;;;;5035071;28;20260;-69
2023/07/11 07:40:06;;;;;;;7.17;6.40;;;26.60;91.00;;;;;;5015402;28;20196;-69
2023/07/11 07:42:32;;;;;;;6.67;5.77;;;26.70;91.30;;;;;;5022840;28;20184;-69
2023/07/11 07:44:58;;;;;;;9.40;6.90;;;26.70;91.50;;;;;;5019806;28;20461;-69
2023/07/11 07:47:23;;;;;;;7.13;6.43;;;26.70;91.50;;;;;;5017986;28;20527;-69
2023/07/11 07:49:49;;;;;;;6.50;5.90;;;26.80;91.50;;;;;;5018217;28;20577;-69
2023/07/11 07:52:14;;;;;;;6.73;5.93;;;26.70;91.20;;;;;;5016098;28;20590;-69
2023/07/11 07:54:40;;;;;;;10.00;8.20;;;26.80;91.30;;;;;;5020713;28;20586;-69
2023/07/11 07:57:05;;;;;;;9.40;6.20;;;26.90;91.20;;;;;;5014927;28;20204;-70
2023/07/11 07:59:31;;;;;;;9.10;6.40;;;27.00;91.40;;;;;;5016714;28;20292;-69
2023/07/11 08:01:57;;;;;;;12.90;6.70;;;27.00;91.40;;;;;;5017306;28;20180;-69
2023/07/11 08:04:23;;;;;;;8.53;6.50;;;27.10;91.40;;;;;;5019079;28;20427;-70
2023/07/11 08:06:48;;;;;;;11.23;6.20;;;27.30;91.50;;;;;;5020741;28;20184;-70
2023/07/11 08:09:14;;;;;;;10.03;6.80;;;27.40;91.80;;;;;;5019663;28;20203;-69
2023/07/11 08:11:43;;;;;;;7.60;6.90;;;27.40;91.70;;;;;;5019671;28;20390;-69
2023/07/11 08:14:08;;;;;;;6.97;6.37;;;27.40;91.80;;;;;;5016905;28;20173;-69
2023/07/11 08:16:34;;;;;;;12.00;6.17;;;27.40;91.60;;;;;;5017885;28;20434;-69
2023/07/11 08:19:04;;;;;;;6.47;5.90;;;27.50;91.20;;;;;;5018758;28;20204;-69
2023/07/11 08:21:30;;;;;;;7.87;6.70;;;27.50;90.80;;;;;;5022125;28;20192;-69
2023/07/11 08:23:55;;;;;;;7.90;6.53;;;27.50;90.80;;;;;;5015118;28;20495;-69
2023/07/11 08:26:22;;;;;;;9.10;6.40;;;27.50;91.00;;;;;;5018846;28;20192;-69
2023/07/11 08:28:49;;;;;;;7.40;6.70;;;27.60;90.40;;;;;;5020360;28;20972;-69
2023/07/11 08:31:15;;;;;;;7.03;6.43;;;27.80;89.60;;;;;;5012264;28;20490;-69
2023/07/11 08:33:41;;;;;;;9.60;6.10;;;27.70;89.80;;;;;;5022450;28;20427;-69
2023/07/11 08:36:07;;;;;;;6.83;6.13;;;27.80;90.00;;;;;;5019518;28;20431;-69
2023/07/11 08:38:33;;;;;;;7.90;6.63;;;27.90;90.20;;;;;;5030184;28;20302;-69
2023/07/11 08:41:20;;;;;;;7.50;6.67;;;28.00;90.40;;;;;;5017094;28;20674;-69
2023/07/11 08:43:48;;;;;;;10.70;8.70;;;28.00;90.70;;;;;;5017696;28;20610;-69
2023/07/11 08:46:15;;;;;;;8.07;7.17;;;28.00;91.30;;;;;;5022939;28;20438;-69
2023/07/11 08:48:53;;;;;;;7.77;7.07;;;28.00;90.60;;;;;;5023226;28;21534;-69
2023/07/11 08:51:32;;;;;;;16.73;7.40;;;28.10;90.70;;;;;;5019755;28;20459;-69
2023/07/11 08:54:05;;;;;;;8.23;7.40;;;28.20;90.80;;;;;;5018669;28;20423;-69
2023/07/11 08:56:47;;;;;;;8.10;7.27;;;28.20;90.90;;;;;;5021005;28;20428;-69
2023/07/11 08:59:15;;;;;;;6.90;6.20;;;28.30;91.00;;;;;;5018701;28;20465;-69
2023/07/11 09:02:01;;;;;;;7.70;6.90;;;28.40;90.90;;;;;;5016450;28;20442;-69
2023/07/11 09:04:29;;;;;;;8.60;7.13;;;28.40;90.80;;;;;;5019307;28;20797;-69
2023/07/11 09:07:09;;;;;;;11.20;7.03;;;28.60;90.70;;;;;;5019332;28;20423;-69
2023/07/11 09:09:35;;;;;;;9.10;7.80;;;28.70;90.30;;;;;;5017038;28;20823;-69
2023/07/11 09:12:07;;;;;;;10.47;7.20;;;28.70;90.50;;;;;;5017351;28;20458;-69
2023/07/11 09:14:38;;;;;;;8.03;7.27;;;28.80;90.40;;;;;;5021630;28;20188;-69
2023/07/11 09:17:21;;;;;;;9.40;6.97;;;29.00;89.80;;;;;;5016489;28;20438;-70
2023/07/11 09:20:11;;;;;;;7.87;7.07;;;29.10;89.10;;;;;;5017854;28;20442;-69
2023/07/11 09:22:50;;;;;;;8.20;7.40;;;29.20;88.10;;;;;;5015559;28;20438;-69
2023/07/11 09:25:17;;;;;;;9.23;6.90;;;29.20;87.70;;;;;;5018982;28;20470;-69
2023/07/11 09:27:52;;;;;;;11.37;7.50;;;29.20;88.00;;;;;;5020450;28;20529;-69
2023/07/11 09:30:18;;;;;;;7.53;6.80;;;29.10;88.50;;;;;;5015364;28;21120;-69
2023/07/11 09:32:44;;;;;;;11.57;7.80;;;29.10;88.90;;;;;;5017474;28;20434;-69
2023/07/11 09:35:24;;;;;;;11.57;8.47;;;29.30;88.90;;;;;;5021554;28;20192;-69
2023/07/11 09:37:56;;;;;;;11.40;8.20;;;29.40;89.10;;;;;;5020500;28;20419;-69
2023/07/11 09:40:33;;;;;;;8.63;7.83;;;29.50;88.90;;;;;;5020628;28;20505;-69
2023/07/11 09:42:59;;;;;;;8.63;7.63;;;29.70;89.00;;;;;;5023113;28;20439;-69
2023/07/11 09:45:50;;;;;;;11.83;7.83;;;29.70;87.60;;;;;;5018613;28;20422;-69
2023/07/11 09:48:26;;;;;;;8.27;7.47;;;29.70;87.60;;;;;;5021705;28;20663;-69
2023/07/11 09:51:03;;;;;;;7.27;6.57;;;29.80;87.60;;;;;;5019895;28;20474;-69
2023/07/11 09:53:31;;;;;;;10.10;7.27;;;30.00;87.20;;;;;;5021061;28;20525;-69
2023/07/11 09:55:58;;;;;;;7.80;7.10;;;30.10;86.70;;;;;;5020005;28;20438;-69
2023/07/11 09:58:29;;;;;;;8.10;7.30;;;30.10;86.80;;;;;;5023521;28;20509;-69
2023/07/11 10:01:00;;;;;;;8.23;7.27;;;30.20;86.50;;;;;;5023563;28;20442;-68
2023/07/11 10:03:27;;;;;;;8.97;8.17;;;30.30;87.20;;;;;;5024154;28;20481;-70
2023/07/11 10:05:53;;;;;;;8.03;7.23;;;30.50;87.30;;;;;;5021945;28;20427;-69
2023/07/11 10:08:22;;;;;;;11.73;7.50;;;30.60;86.70;;;;;;5021984;28;20433;-69
2023/07/11 10:10:53;;;;;;;8.93;8.10;;;30.60;87.10;;;;;;5022390;28;20459;-69
2023/07/11 10:13:19;;;;;;;9.63;8.73;;;30.60;86.80;;;;;;5017178;28;20489;-68
2023/07/11 10:15:53;;;;;;;10.07;8.10;;;30.60;87.50;;;;;;5013174;28;20407;-69
2023/07/11 10:18:22;;;;;;;8.13;7.30;;;30.70;88.00;;;;;;5021497;28;20558;-69
2023/07/11 10:20:51;;;;;;;7.70;6.90;;;30.80;87.70;;;;;;5011779;28;20434;-70
2023/07/11 10:23:24;;;;;;;10.43;7.53;;;30.80;87.80;;;;;;5021693;28;20459;-69
2023/07/11 10:26:09;;;;;;;15.67;7.67;;;30.80;87.90;;;;;;5018058;28;20486;-69
2023/07/11 10:28:39;;;;;;;7.83;7.13;;;30.80;87.70;;;;;;5035720;28;20680;-69
2023/07/11 10:31:16;;;;;;;8.67;7.63;;;30.80;87.40;;;;;;5015228;28;20497;-70
2023/07/11 10:33:56;;;;;;;9.60;8.23;;;30.80;87.70;;;;;;5015958;28;20408;-70
2023/07/11 10:36:28;;;;;;;8.90;8.00;;;30.90;87.00;;;;;;5014983;28;20431;-70
2023/07/11 10:38:58;;;;;;;9.13;7.37;;;31.00;87.10;;;;;;5015324;28;20526;-69
2023/07/11 10:41:31;;;;;;;7.80;7.10;;;31.10;86.70;;;;;;5021151;28;20419;-69
2023/07/11 10:44:00;;;;;;;9.13;8.20;;;31.20;87.00;;;;;;5015745;28;20439;-67
2023/07/11 10:46:31;;;;;;;8.43;7.63;;;31.30;87.00;;;;;;5013683;28;20470;-69
2023/07/11 10:49:06;;;;;;;8.90;8.00;;;31.40;87.30;;;;;;5014873;28;20874;-69
2023/07/11 10:51:36;;;;;;;9.33;7.90;;;31.40;85.10;;;;;;5016204;28;20486;-69
2023/07/11 10:54:24;;;;;;;8.33;7.47;;;31.50;84.40;;;;;;5014339;28;20434;-69
2023/07/11 10:57:00;;;;;;;8.60;7.90;;;31.60;83.70;;;;;;5015884;28;20431;-70
2023/07/11 10:59:29;;;;;;;8.87;7.97;;;31.60;83.90;;;;;;5017585;28;20543;-69
2023/07/11 11:02:07;;;;;;;11.23;9.57;;;31.80;84.60;;;;;;5010402;28;20435;-69
2023/07/11 11:04:47;;;;;;;8.87;7.97;;;31.80;85.80;;;;;;5020294;28;20415;-69
2023/07/11 11:07:41;;;;;;;13.00;7.80;;;31.90;86.40;;;;;;5019536;28;20427;-70
2023/07/11 11:10:13;;;;;;;10.73;9.60;;;31.90;82.60;;;;;;5010799;28;20701;-70
2023/07/11 11:12:58;;;;;;;8.93;7.57;;;31.90;81.90;;;;;;5014826;28;21176;-69
2023/07/11 11:15:39;;;;;;;8.20;7.30;;;31.90;81.70;;;;;;5013832;28;20465;-69
2023/07/11 11:18:26;;;;;;;12.93;7.87;;;32.00;82.30;;;;;;5018632;28;20939;-70
2023/07/11 11:21:19;;;;;;;7.57;6.87;;;32.10;84.60;;;;;;5017840;28;20435;-70
2023/07/11 11:23:56;;;;;;;8.53;7.63;;;32.30;81.10;;;;;;5022419;28;20415;-70
2023/07/11 11:27:16;;;;;;;8.63;7.57;;;32.40;79.60;;;;;;5016843;28;20879;-69
2023/07/11 11:30:00;;;;;;;9.63;8.37;;;32.40;79.80;;;;;;5014287;28;20471;-69
2023/07/11 11:32:30;;;;;;;7.90;7.10;;;32.50;80.20;;;;;;5017671;28;20441;-69
2023/07/11 11:35:12;;;;;;;9.60;7.63;;;32.60;80.90;;;;;;5011950;28;20441;-69
2023/07/11 11:37:43;;;;;;;7.80;7.10;;;32.60;81.10;;;;;;5015716;28;20430;-69
2023/07/11 11:40:14;;;;;;;7.60;7.00;;;32.70;80.60;;;;;;5019770;28;20435;-70
2023/07/11 11:42:43;;;;;;;8.67;7.83;;;32.90;80.50;;;;;;5020340;28;20431;-70
2023/07/11 11:45:18;;;;;;;8.10;7.40;;;33.00;79.90;;;;;;5022302;28;20560;-69
2023/07/11 11:47:45;;;;;;;8.60;7.63;;;33.10;79.60;;;;;;5012040;28;20522;-69
2023/07/11 11:50:20;;;;;;;8.23;7.43;;;33.20;80.70;;;;;;5025757;28;20548;-69
2023/07/11 11:52:46;;;;;;;7.70;6.90;;;33.40;79.90;;;;;;5013858;28;20735;-69
2023/07/11 11:55:36;;;;;;;10.17;7.60;;;33.60;80.10;;;;;;5017246;28;20422;-69
2023/07/11 11:58:02;;;;;;;9.63;8.63;;;33.60;79.30;;;;;;5016901;28;20427;-68
2023/07/11 12:00:37;;;;;;;9.70;8.00;;;33.80;77.60;;;;;;5012256;28;20421;-68
2023/07/11 12:03:04;;;;;;;8.90;7.90;;;33.90;78.30;;;;;;5014577;28;20474;-69
2023/07/11 12:05:30;;;;;;;8.43;7.53;;;34.00;78.30;;;;;;5013881;28;22887;-69
2023/07/11 12:08:30;;;;;;;8.20;7.50;;;34.20;77.10;;;;;;5016741;28;20417;-69
2023/07/11 12:11:07;;;;;;;9.00;8.00;;;34.60;75.10;;;;;;5012854;28;20858;-69
2023/07/11 12:13:37;;;;;;;9.10;8.30;;;35.80;74.30;;;;;;5019053;28;20854;-69
2023/07/11 12:16:25;;;;;;;9.20;7.23;;;37.00;71.10;;;;;;5013884;28;20865;-69
2023/07/11 12:18:58;;;;;;;8.30;7.60;;;37.50;68.70;;;;;;5015146;28;20406;-70
2023/07/11 12:21:41;;;;;;;12.07;8.13;;;38.30;67.10;;;;;;5016768;28;20427;-69
2023/07/11 12:24:19;;;;;;;9.40;8.43;;;38.40;64.60;;;;;;5009743;28;20410;-69
2023/07/11 12:26:44;;;;;;;8.17;7.47;;;38.80;64.10;;;;;;5016232;28;20928;-70
2023/07/11 12:29:52;;;;;;;8.40;7.40;;;38.90;62.10;;;;;;5016787;28;20493;-70
2023/07/11 12:32:33;;;;;;;8.93;8.13;;;38.00;61.20;;;;;;4975860;28;20186;-70
2023/07/11 12:35:04;;;;;;;9.37;7.80;;;37.40;61.70;;;;;;4975588;28;20444;-69
2023/07/11 12:37:42;;;;;;;7.30;6.70;;;37.20;62.80;;;;;;4998461;28;22149;-70
2023/07/11 12:40:37;;;;;;;8.07;7.27;;;37.50;62.70;;;;;;5013453;28;20480;-70
2023/07/11 12:43:16;;;;;;;9.47;8.53;;;37.80;61.60;;;;;;5013324;28;20449;-70
2023/07/11 12:46:06;;;;;;;7.90;7.20;;;37.30;60.10;;;;;;5015922;28;20437;-69
2023/07/11 12:48:38;;;;;;;7.90;7.20;;;37.60;60.80;;;;;;4998237;28;20438;-69
2023/07/11 12:51:21;;;;;;;8.50;7.70;;;37.50;60.50;;;;;;5014175;28;20538;-69
2023/07/11 12:53:51;;;;;;;7.30;6.60;;;37.60;59.70;;;;;;5017870;28;20397;-69
2023/07/11 12:56:17;;;;;;;7.60;7.00;;;37.70;59.90;;;;;;5010104;28;20456;-69